Time;durP1;ratioP1;P1;durP2;ratioP2;P2;SDS_P1;SDS_P2;PMS_P1;PMS_P2;Temp;Humidity;BMP_temperature;BMP_pressure;BME280_temperature;BME280_humidity;BME280_pressure;Samples;Min_cycle;Max_cycle;Signal;HPM_P1;HPM_P2
2022/09/25 00:01:00;;;;;;;;;;;;;;;;;;4995281;28;20393;-76
2022/09/25 00:03:26;;;;;;;;;;;;;;;;;;4994740;28;19929;-77
2022/09/25 00:05:51;;;;;;;;;;;;;;;;;;4993915;28;19925;-77
2022/09/25 00:08:17;;;;;;;;;;;;;;;;;;4994016;28;20437;-76
2022/09/25 00:10:42;;;;;;;;;;;;;;;;;;4993667;28;19914;-76
2022/09/25 00:13:07;;;;;;;;;;;;;;;;;;4994778;28;19914;-76
2022/09/25 00:15:33;;;;;;;;;;;;;;;;;;4994576;28;19918;-77
2022/09/25 00:17:58;;;;;;;;;;;;;;;;;;4994897;28;19918;-76
2022/09/25 00:20:23;;;;;;;;;;;;;;;;;;4993999;28;20388;-77
2022/09/25 00:22:49;;;;;;;;;;;;;;;;;;4993705;28;19957;-76
2022/09/25 00:25:14;;;;;;;;;;;;;;;;;;4995300;28;19917;-76
2022/09/25 00:27:40;;;;;;;;;;;;;;;;;;4995357;28;19920;-77
2022/09/25 00:30:05;;;;;;;;;;;;;;;;;;4974700;28;19956;-77
2022/09/25 00:32:31;;;;;;;;;;;;;;;;;;4993640;28;20289;-76
2022/09/25 00:34:56;;;;;;;;;;;;;;;;;;4993124;28;20008;-77
2022/09/25 00:37:21;;;;;;;;;;;;;;;;;;4994590;28;19968;-76
2022/09/25 00:39:47;;;;;;;;;;;;;;;;;;4994446;28;19921;-76
2022/09/25 00:42:12;;;;;;;;;;;;;;;;;;4994386;28;20305;-78
2022/09/25 00:44:38;;;;;;;;;;;;;;;;;;4994315;28;20270;-77
2022/09/25 00:47:03;;;;;;;;;;;;;;;;;;4994204;28;19914;-76
2022/09/25 00:49:29;;;;;;;;;;;;;;;;;;4992669;28;19921;-76
2022/09/25 00:51:54;;;;;;;;;;;;;;;;;;4992984;28;19921;-76
2022/09/25 00:54:19;;;;;;;;;;;;;;;;;;4992621;28;19913;-77
2022/09/25 00:56:45;;;;;;;;;;;;;;;;;;4994094;28;19932;-77
2022/09/25 00:59:10;;;;;;;;;;;;;;;;;;4994081;28;20300;-77
2022/09/25 01:01:35;;;;;;;;;;;;;;;;;;4992935;28;20258;-76
2022/09/25 01:04:01;;;;;;;;;;;;;;;;;;4993748;28;20012;-77
2022/09/25 01:06:26;;;;;;;;;;;;;;;;;;4993162;28;20012;-77
2022/09/25 01:08:51;;;;;;;;;;;;;;;;;;4992591;28;19918;-76
2022/09/25 01:11:17;;;;;;;;;;;;;;;;;;4993730;28;20292;-77
2022/09/25 01:13:42;;;;;;;;;;;;;;;;;;4993593;28;19914;-77
2022/09/25 01:16:07;;;;;;;;;;;;;;;;;;4993576;28;19918;-77
2022/09/25 01:18:33;;;;;;;;;;;;;;;;;;4993694;28;19920;-76
2022/09/25 01:20:58;;;;;;;;;;;;;;;;;;4992987;28;19920;-76
2022/09/25 01:23:23;;;;;;;;;;;;;;;;;;4993342;28;19918;-77
2022/09/25 01:25:49;;;;;;;;;;;;;;;;;;4993633;28;19917;-77
2022/09/25 01:28:14;;;;;;;;;;;;;;;;;;4993533;28;20163;-77
2022/09/25 01:30:40;;;;;;;;;;;;;;;;;;4974723;28;19914;-77
2022/09/25 01:33:06;;;;;;;;;;;;;;;;;;4982503;28;19921;-77
2022/09/25 01:35:31;;;;;;;;;;;;;;;;;;4992476;28;19933;-77
2022/09/25 01:37:58;;;;;;;;;;;;;;;;;;4991958;28;20571;-77
2022/09/25 01:40:24;;;;;;;;;;;;;;;;;;4992156;28;19914;-77
2022/09/25 01:42:49;;;;;;;;;;;;;;;;;;4992842;28;19913;-78
2022/09/25 01:45:15;;;;;;;;;;;;;;;;;;5004248;23;19925;-77
2022/09/25 01:47:40;;;;;;;;;;;;;;;;;;4993165;28;19968;-77
2022/09/25 01:50:06;;;;;;;;;;;;;;;;;;4991959;28;19913;-76
2022/09/25 01:52:31;;;;;;;;;;;;;;;;;;4993115;28;19914;-77
2022/09/25 01:54:57;;;;;;;;;;;;;;;;;;4985193;28;20289;-76
2022/09/25 01:57:22;;;;;;;;;;;;;;;;;;4973827;28;19914;-77
2022/09/25 01:59:48;;;;;;;;;;;;;;;;;;4973660;28;20013;-77
2022/09/25 02:02:13;;;;;;;;;;;;;;;;;;4973532;28;20423;-77
2022/09/25 02:04:38;;;;;;;;;;;;;;;;;;4972109;28;20021;-77
2022/09/25 02:07:04;;;;;;;;;;;;;;;;;;4972302;28;19938;-76
2022/09/25 02:09:29;;;;;;;;;;;;;;;;;;4981310;28;20302;-77
2022/09/25 02:11:54;;;;;;;;;;;;;;;;;;4960980;28;19922;-75
2022/09/25 02:14:20;;;;;;;;;;;;;;;;;;4972187;28;19980;-78
2022/09/25 02:16:45;;;;;;;;;;;;;;;;;;4973558;28;20401;-77
2022/09/25 02:21:55;;;;;;;;;;;;;;;;;;4973345;28;20145;-76
2022/09/25 02:24:20;;;;;;;;;;;;;;;;;;4972716;28;20389;-77
2022/09/25 02:26:45;;;;;;;;;;;;;;;;;;4987126;28;20329;-77
2022/09/25 02:29:11;;;;;;;;;;;;;;;;;;4973097;28;19972;-77
2022/09/25 02:31:39;;;;;;;;;;;;;;;;;;4974944;28;20226;-77
2022/09/25 02:34:04;;;;;;;;;;;;;;;;;;4994271;28;19961;-77
2022/09/25 02:36:31;;;;;;;;;;;;;;;;;;4979591;28;20362;-77
2022/09/25 02:38:56;;;;;;;;;;;;;;;;;;4979783;28;19914;-77
2022/09/25 02:41:21;;;;;;;;;;;;;;;;;;4979598;28;20290;-77
2022/09/25 02:43:47;;;;;;;;;;;;;;;;;;4977341;28;20278;-76
2022/09/25 02:46:12;;;;;;;;;;;;;;;;;;4979715;28;19914;-76
2022/09/25 02:48:37;;;;;;;;;;;;;;;;;;4994690;28;20301;-76
2022/09/25 02:51:03;;;;;;;;;;;;;;;;;;4978520;28;20358;-77
2022/09/25 02:53:28;;;;;;;;;;;;;;;;;;4979318;28;20558;-76
2022/09/25 02:55:54;;;;;;;;;;;;;;;;;;4979573;28;19915;-75
2022/09/25 02:58:19;;;;;;;;;;;;;;;;;;4979423;28;19917;-76
2022/09/25 03:00:45;;;;;;;;;;;;;;;;;;4977333;28;19914;-75
2022/09/25 03:03:11;;;;;;;;;;;;;;;;;;4979201;28;19969;-78
2022/09/25 03:05:36;;;;;;;;;;;;;;;;;;4979618;28;19918;-78
2022/09/25 03:10:45;;;;;;;;;;;;;;;;;;4964714;28;20373;-76
2022/09/25 03:13:10;;;;;;;;;;;;;;;;;;4979338;28;19997;-76
2022/09/25 03:15:36;;;;;;;;;;;;;;;;;;4982493;28;20365;-76
2022/09/25 03:18:01;;;;;;;;;;;;;;;;;;4982933;28;20296;-76
2022/09/25 03:20:26;;;;;;;;;;;;;;;;;;4979305;28;20356;-76
2022/09/25 03:22:52;;;;;;;;;;;;;;;;;;4979099;28;19925;-76
2022/09/25 03:25:18;;;;;;;;;;;;;;;;;;4978031;28;19968;-78
2022/09/25 03:27:43;;;;;;;;;;;;;;;;;;4978061;28;19918;-77
2022/09/25 03:30:08;;;;;;;;;;;;;;;;;;4976183;28;19969;-75
2022/09/25 03:32:34;;;;;;;;;;;;;;;;;;4979008;28;19918;-77
2022/09/25 03:34:59;;;;;;;;;;;;;;;;;;4979216;28;19914;-76
2022/09/25 03:37:25;;;;;;;;;;;;;;;;;;4994194;28;20324;-76
2022/09/25 03:39:50;;;;;;;;;;;;;;;;;;4978155;28;20340;-78
2022/09/25 03:42:15;;;;;;;;;;;;;;;;;;4994485;28;19914;-78
2022/09/25 03:44:41;;;;;;;;;;;;;;;;;;4976226;28;19944;-77
2022/09/25 03:47:07;;;;;;;;;;;;;;;;;;4975455;28;19997;-76
2022/09/25 03:49:32;;;;;;;;;;;;;;;;;;4958445;28;20404;-75
2022/09/25 03:51:58;;;;;;;;;;;;;;;;;;4976589;28;20301;-77
2022/09/25 03:54:24;;;;;;;;;;;;;;;;;;4976114;28;20044;-75
2022/09/25 03:56:50;;;;;;;;;;;;;;;;;;4976026;28;20366;-75
2022/09/25 03:59:15;;;;;;;;;;;;;;;;;;4974685;28;20029;-77
2022/09/25 04:01:41;;;;;;;;;;;;;;;;;;4976329;28;19925;-75
2022/09/25 04:04:06;;;;;;;;;;;;;;;;;;4975499;28;19925;-76
2022/09/25 04:06:31;;;;;;;;;;;;;;;;;;4975249;28;19914;-77
2022/09/25 04:08:57;;;;;;;;;;;;;;;;;;4970255;28;19922;-76
2022/09/25 04:11:22;;;;;;;;;;;;;;;;;;4975761;28;19918;-74
2022/09/25 04:13:48;;;;;;;;;;;;;;;;;;4975483;28;20267;-75
2022/09/25 04:16:14;;;;;;;;;;;;;;;;;;4990577;28;19914;-75
2022/09/25 04:18:41;;;;;;;;;;;;;;;;;;4975744;28;19921;-77
2022/09/25 04:21:07;;;;;;;;;;;;;;;;;;4974036;28;19910;-76
2022/09/25 04:23:32;;;;;;;;;;;;;;;;;;4974930;28;19918;-74
2022/09/25 04:25:57;;;;;;;;;;;;;;;;;;4988068;28;19918;-77
2022/09/25 04:28:23;;;;;;;;;;;;;;;;;;4976053;28;19914;-76
2022/09/25 04:30:48;;;;;;;;;;;;;;;;;;4975726;28;19910;-77
2022/09/25 04:35:57;;;;;;;;;;;;;;;;;;4975490;28;19914;-76
2022/09/25 04:38:23;;;;;;;;;;;;;;;;;;4974007;28;20293;-77
2022/09/25 04:40:48;;;;;;;;;;;;;;;;;;4979423;28;20270;-77
2022/09/25 04:43:13;;;;;;;;;;;;;;;;;;4978912;28;20289;-76
2022/09/25 04:45:39;;;;;;;;;;;;;;;;;;4978778;28;19918;-76
2022/09/25 04:48:04;;;;;;;;;;;;;;;;;;4996531;28;19910;-77
2022/09/25 04:50:29;;;;;;;;;;;;;;;;;;4980541;28;20005;-77
2022/09/25 04:53:00;;;;;;;;;;;;;;;;;;4984407;28;19981;-76
2022/09/25 04:55:26;;;;;;;;;;;;;;;;;;4978424;28;19968;-75
2022/09/25 04:57:51;;;;;;;;;;;;;;;;;;4992688;28;19968;-77
2022/09/25 05:00:18;;;;;;;;;;;;;;;;;;4980487;28;20008;-77
2022/09/25 05:02:43;;;;;;;;;;;;;;;;;;4994795;28;19921;-77
2022/09/25 05:05:09;;;;;;;;;;;;;;;;;;4982938;28;20391;-77
2022/09/25 05:07:34;;;;;;;;;;;;;;;;;;4984046;28;20329;-75
2022/09/25 05:10:00;;;;;;;;;;;;;;;;;;4980427;28;19914;-75
2022/09/25 05:12:25;;;;;;;;;;;;;;;;;;4995169;28;19910;-77
2022/09/25 05:14:50;;;;;;;;;;;;;;;;;;4985611;28;19918;-77
2022/09/25 05:17:16;;;;;;;;;;;;;;;;;;4982304;28;19937;-76
2022/09/25 05:19:41;;;;;;;;;;;;;;;;;;5000053;28;19918;-77
2022/09/25 05:22:06;;;;;;;;;;;;;;;;;;4975941;28;20233;-77
2022/09/25 05:24:32;;;;;;;;;;;;;;;;;;4974373;28;19918;-77
2022/09/25 05:26:57;;;;;;;;;;;;;;;;;;4973218;28;19929;-75
2022/09/25 05:29:23;;;;;;;;;;;;;;;;;;4974268;28;20336;-78
2022/09/25 05:31:48;;;;;;;;;;;;;;;;;;4977447;28;19953;-76
2022/09/25 05:34:14;;;;;;;;;;;;;;;;;;4975371;28;20086;-76
2022/09/25 05:36:39;;;;;;;;;;;;;;;;;;4974128;28;19914;-78
2022/09/25 05:39:04;;;;;;;;;;;;;;;;;;4972876;28;19914;-77
2022/09/25 05:41:32;;;;;;;;;;;;;;;;;;4988980;28;19914;-75
2022/09/25 05:43:57;;;;;;;;;;;;;;;;;;4972534;28;20381;-77
2022/09/25 05:46:25;;;;;;;;;;;;;;;;;;4973102;28;21617;-76
2022/09/25 05:48:50;;;;;;;;;;;;;;;;;;4973988;28;20193;-76
2022/09/25 05:51:16;;;;;;;;;;;;;;;;;;4973051;28;19943;-77
2022/09/25 05:53:41;;;;;;;;;;;;;;;;;;4956282;28;20285;-76
2022/09/25 05:56:06;;;;;;;;;;;;;;;;;;4973936;28;20046;-76
2022/09/25 05:58:35;;;;;;;;;;;;;;;;;;4973842;28;20274;-78
2022/09/25 06:01:00;;;;;;;;;;;;;;;;;;4973998;28;19921;-76
2022/09/25 06:03:28;;;;;;;;;;;;;;;;;;4973850;28;19918;-76
2022/09/25 06:05:53;;;;;;;;;;;;;;;;;;4985108;28;20430;-76
2022/09/25 06:08:19;;;;;;;;;;;;;;;;;;4973509;28;19918;-76
2022/09/25 06:10:45;;;;;;;;;;;;;;;;;;4974258;28;19956;-77
2022/09/25 06:13:10;;;;;;;;;;;;;;;;;;4972421;28;19915;-77
2022/09/25 06:15:36;;;;;;;;;;;;;;;;;;4973973;28;20298;-75
2022/09/25 06:18:01;;;;;;;;;;;;;;;;;;4972546;28;20395;-75
2022/09/25 06:20:27;;;;;;;;;;;;;;;;;;4972543;28;19920;-77
2022/09/25 06:22:53;;;;;;;;;;;;;;;;;;4971484;28;20309;-76
2022/09/25 06:25:18;;;;;;;;;;;;;;;;;;4969191;28;20349;-77
2022/09/25 06:27:44;;;;;;;;;;;;;;;;;;4968259;28;20267;-77
2022/09/25 06:30:09;;;;;;;;;;;;;;;;;;4972124;28;19914;-76
2022/09/25 06:32:34;;;;;;;;;;;;;;;;;;4973388;28;20277;-76
2022/09/25 06:35:00;;;;;;;;;;;;;;;;;;4972049;28;19914;-77
2022/09/25 06:37:25;;;;;;;;;;;;;;;;;;4972665;28;19985;-75
2022/09/25 06:39:50;;;;;;;;;;;;;;;;;;4958675;28;19918;-75
2022/09/25 06:42:16;;;;;;;;;;;;;;;;;;4971955;28;19914;-75
2022/09/25 06:44:42;;;;;;;;;;;;;;;;;;4972933;28;20006;-76
2022/09/25 06:47:09;;;;;;;;;;;;;;;;;;4971951;28;20437;-77
2022/09/25 06:49:34;;;;;;;;;;;;;;;;;;4971857;28;20389;-77
2022/09/25 06:52:00;;;;;;;;;;;;;;;;;;4972067;28;19921;-76
2022/09/25 06:54:25;;;;;;;;;;;;;;;;;;4972772;28;20001;-77
2022/09/25 06:56:50;;;;;;;;;;;;;;;;;;4984126;28;19918;-77
2022/09/25 06:59:16;;;;;;;;;;;;;;;;;;4973055;28;19937;-77
2022/09/25 07:01:41;;;;;;;;;;;;;;;;;;4973003;28;19914;-77
2022/09/25 07:04:07;;;;;;;;;;;;;;;;;;4972814;28;20282;-77
2022/09/25 07:06:33;;;;;;;;;;;;;;;;;;4972887;28;19914;-76
2022/09/25 07:09:00;;;;;;;;;;;;;;;;;;4988292;28;20369;-78
2022/09/25 07:11:26;;;;;;;;;;;;;;;;;;4981583;28;20010;-77
2022/09/25 07:13:53;;;;;;;;;;;;;;;;;;4968422;28;19957;-79
2022/09/25 07:16:19;;;;;;;;;;;;;;;;;;4973157;28;19950;-77
2022/09/25 07:18:45;;;;;;;;;;;;;;;;;;4955081;28;19973;-75
2022/09/25 07:21:10;;;;;;;;;;;;;;;;;;4949925;28;19924;-75
2022/09/25 07:23:36;;;;;;;;;;;;;;;;;;4976451;28;19918;-76
2022/09/25 07:26:02;;;;;;;;;;;;;;;;;;4976361;28;19937;-78
2022/09/25 07:28:27;;;;;;;;;;;;;;;;;;4991966;28;19922;-77
2022/09/25 07:30:53;;;;;;;;;;;;;;;;;;4976480;28;19914;-76
2022/09/25 07:33:20;;;;;;;;;;;;;;;;;;4976069;28;19922;-75
2022/09/25 07:35:45;;;;;;;;;;;;;;;;;;4976258;28;20441;-77
2022/09/25 07:38:11;;;;;;;;;;;;;;;;;;4957331;28;20009;-77
2022/09/25 07:40:36;;;;;;;;;;;;;;;;;;4975209;28;19940;-78
2022/09/25 07:43:01;;;;;;;;;;;;;;;;;;4977775;28;19929;-76
2022/09/25 07:45:27;;;;;;;;;;;;;;;;;;5002734;22;20309;-78
2022/09/25 07:47:52;;;;;;;;;;;;;;;;;;4995307;28;19920;-78
2022/09/25 07:50:17;;;;;;;;;;;;;;;;;;4995662;28;20360;-78
2022/09/25 07:52:43;;;;;;;;;;;;;;;;;;4995534;28;20470;-78
2022/09/25 07:55:08;;;;;;;;;;;;;;;;;;4996027;28;19929;-77
2022/09/25 07:57:33;;;;;;;;;;;;;;;;;;4995193;28;19960;-77
2022/09/25 07:59:59;;;;;;;;;;;;;;;;;;4995491;28;19914;-77
2022/09/25 08:02:25;;;;;;;;;;;;;;;;;;4994166;28;19914;-77
2022/09/25 08:04:50;;;;;;;;;;;;;;;;;;4995984;28;19971;-77
2022/09/25 08:07:15;;;;;;;;;;;;;;;;;;4994838;28;19996;-76
2022/09/25 08:09:41;;;;;;;;;;;;;;;;;;4978354;28;20296;-77
2022/09/25 08:12:07;;;;;;;;;;;;;;;;;;4995625;28;20309;-77
2022/09/25 08:14:33;;;;;;;;;;;;;;;;;;4994159;28;19929;-78
2022/09/25 08:16:58;;;;;;;;;;;;;;;;;;4994463;28;20012;-78
2022/09/25 08:19:23;;;;;;;;;;;;;;;;;;4996972;28;19953;-78
2022/09/25 08:21:49;;;;;;;;;;;;;;;;;;4996716;28;19945;-78
2022/09/25 08:24:14;;;;;;;;;;;;;;;;;;4979326;28;19922;-78
2022/09/25 08:26:40;;;;;;;;;;;;;;;;;;4996078;28;19949;-78
2022/09/25 08:29:07;;;;;;;;;;;;;;;;;;4995660;28;19965;-78
2022/09/25 08:31:33;;;;;;;;;;;;;;;;;;4996474;28;21289;-78
2022/09/25 08:33:58;;;;;;;;;;;;;;;;;;4993056;28;20377;-78
2022/09/25 08:36:24;;;;;;;;;;;;;;;;;;4994619;28;19914;-78
2022/09/25 08:38:49;;;;;;;;;;;;;;;;;;4994750;28;20317;-78
2022/09/25 08:41:14;;;;;;;;;;;;;;;;;;4994826;28;19913;-78
2022/09/25 08:43:40;;;;;;;;;;;;;;;;;;4993843;28;19963;-78
2022/09/25 08:49:02;;;;;;;;;;;;;;;;;;4991323;28;19922;-77
2022/09/25 08:51:27;;;;;;;;;;;;;;;;;;5001500;28;20258;-77
2022/09/25 08:53:53;;;;;;;;;;;;;;;;;;4992824;28;19940;-78
2022/09/25 08:56:18;;;;;;;;;;;;;;;;;;4994155;28;20316;-77
2022/09/25 08:58:43;;;;;;;;;;;;;;;;;;4992822;28;20278;-77
2022/09/25 09:01:09;;;;;;;;;;;;;;;;;;4994188;28;19914;-77
2022/09/25 09:03:34;;;;;;;;;;;;;;;;;;4993710;28;19925;-77
2022/09/25 09:05:59;;;;;;;;;;;;;;;;;;4993112;28;19914;-77
2022/09/25 09:08:26;;;;;;;;;;;;;;;;;;4993880;28;19918;-78
2022/09/25 09:10:52;;;;;;;;;;;;;;;;;;4993829;28;19921;-77
2022/09/25 09:13:17;;;;;;;;;;;;;;;;;;4993613;28;19917;-77
2022/09/25 09:15:42;;;;;;;;;;;;;;;;;;4993741;28;20266;-77
2022/09/25 09:18:08;;;;;;;;;;;;;;;;;;4994141;28;19913;-78
2022/09/25 09:20:33;;;;;;;;;;;;;;;;;;4960577;28;19914;-78
2022/09/25 09:22:59;;;;;;;;;;;;;;;;;;4992103;28;20392;-77
2022/09/25 09:25:24;;;;;;;;;;;;;;;;;;4992583;28;20450;-77
2022/09/25 09:27:50;;;;;;;;;;;;;;;;;;4993325;28;19929;-78
2022/09/25 09:30:15;;;;;;;;;;;;;;;;;;4993228;28;19949;-77
2022/09/25 09:32:40;;;;;;;;;;;;;;;;;;4991962;28;20142;-77
2022/09/25 09:35:06;;;;;;;;;;;;;;;;;;4993286;28;19918;-77
2022/09/25 09:37:31;;;;;;;;;;;;;;;;;;4975985;28;20432;-78
2022/09/25 09:39:56;;;;;;;;;;;;;;;;;;4993373;28;19921;-77
2022/09/25 09:42:24;;;;;;;;;;;;;;;;;;4990925;28;19961;-78
2022/09/25 09:44:50;;;;;;;;;;;;;;;;;;4992826;28;19918;-77
2022/09/25 09:47:16;;;;;;;;;;;;;;;;;;4991952;28;19914;-77
2022/09/25 09:49:41;;;;;;;;;;;;;;;;;;4976013;28;19917;-78
2022/09/25 09:52:07;;;;;;;;;;;;;;;;;;4992985;28;20408;-76
2022/09/25 09:54:34;;;;;;;;;;;;;;;;;;4991658;28;19961;-78
2022/09/25 09:56:59;;;;;;;;;;;;;;;;;;4990777;28;19925;-77
2022/09/25 09:59:25;;;;;;;;;;;;;;;;;;4992966;28;19920;-78
2022/09/25 10:01:51;;;;;;;;;;;;;;;;;;4993382;28;20370;-77
2022/09/25 10:04:16;;;;;;;;;;;;;;;;;;4991198;28;19921;-77
2022/09/25 10:06:42;;;;;;;;;;;;;;;;;;4992865;28;20440;-77
2022/09/25 10:09:07;;;;;;;;;;;;;;;;;;4992838;28;19969;-76
2022/09/25 10:11:33;;;;;;;;;;;;;;;;;;4992676;28;19913;-77
2022/09/25 10:13:58;;;;;;;;;;;;;;;;;;4991129;28;19915;-77
2022/09/25 10:16:24;;;;;;;;;;;;;;;;;;4991399;28;20296;-77
2022/09/25 10:18:49;;;;;;;;;;;;;;;;;;4992732;28;19914;-77
2022/09/25 10:21:15;;;;;;;;;;;;;;;;;;4992694;28;19914;-78
2022/09/25 10:23:41;;;;;;;;;;;;;;;;;;4991318;28;19914;-77
2022/09/25 10:26:06;;;;;;;;;;;;;;;;;;4991554;28;19917;-77
2022/09/25 10:28:35;;;;;;;;;;;;;;;;;;4992680;28;20382;-76
2022/09/25 10:31:01;;;;;;;;;;;;;;;;;;4991824;28;19953;-77
2022/09/25 10:33:26;;;;;;;;;;;;;;;;;;4991467;28;19975;-77
2022/09/25 10:35:53;;;;;;;;;;;;;;;;;;4975092;28;20461;-77
2022/09/25 10:38:19;;;;;;;;;;;;;;;;;;4990891;28;19982;-77
2022/09/25 10:40:46;;;;;;;;;;;;;;;;;;4992382;28;19950;-77
2022/09/25 10:43:11;;;;;;;;;;;;;;;;;;4991124;28;20016;-77
2022/09/25 10:45:39;;;;;;;;;;;;;;;;;;4991321;28;20438;-76
2022/09/25 10:50:49;;;;;;;;;;;;;;;;;;4974434;28;20448;-77
2022/09/25 10:53:14;;;;;;;;;;;;;;;;;;4976352;28;20028;-77
2022/09/25 10:55:39;;;;;;;;;;;;;;;;;;4994994;28;20336;-76
2022/09/25 10:58:05;;;;;;;;;;;;;;;;;;4995997;28;19918;-77
2022/09/25 11:00:33;;;;;;;;;;;;;;;;;;4996006;28;19914;-77
2022/09/25 11:02:59;;;;;;;;;;;;;;;;;;4994718;28;20377;-77
2022/09/25 11:05:24;;;;;;;;;;;;;;;;;;4994256;28;19937;-77
2022/09/25 11:07:51;;;;;;;;;;;;;;;;;;4994619;28;20373;-76
2022/09/25 11:10:16;;;;;;;;;;;;;;;;;;4994298;28;19928;-77
2022/09/25 11:12:42;;;;;;;;;;;;;;;;;;4994723;28;20012;-76
2022/09/25 11:15:08;;;;;;;;;;;;;;;;;;4994517;28;19914;-77
2022/09/25 11:17:33;;;;;;;;;;;;;;;;;;4995763;28;19914;-76
2022/09/25 11:19:59;;;;;;;;;;;;;;;;;;4995763;28;19910;-78
2022/09/25 11:22:24;;;;;;;;;;;;;;;;;;4995713;28;19944;-76
2022/09/25 11:24:50;;;;;;;;;;;;;;;;;;4995715;28;20397;-75
2022/09/25 11:27:15;;;;;;;;;;;;;;;;;;4995660;28;20431;-77
2022/09/25 11:29:41;;;;;;;;;;;;;;;;;;4995631;28;19924;-79
2022/09/25 11:32:07;;;;;;;;;;;;;;;;;;4995608;28;19958;-76
2022/09/25 11:34:32;;;;;;;;;;;;;;;;;;4995596;28;20281;-76
2022/09/25 11:36:57;;;;;;;;;;;;;;;;;;4995394;28;19914;-77
2022/09/25 11:42:07;;;;;;;;;;;;;;;;;;4994517;28;20012;-78
2022/09/25 11:44:33;;;;;;;;;;;;;;;;;;4995357;28;20064;-77
2022/09/25 11:47:00;;;;;;;;;;;;;;;;;;4995393;28;19920;-75
2022/09/25 11:49:25;;;;;;;;;;;;;;;;;;4995768;28;19914;-77
2022/09/25 11:51:50;;;;;;;;;;;;;;;;;;4995855;28;20353;-77
2022/09/25 11:54:16;;;;;;;;;;;;;;;;;;4994116;28;19917;-78
2022/09/25 11:56:41;;;;;;;;;;;;;;;;;;4995985;28;19960;-78
2022/09/25 11:59:07;;;;;;;;;;;;;;;;;;4995936;28;19918;-78
2022/09/25 12:01:32;;;;;;;;;;;;;;;;;;4994618;28;19913;-78
2022/09/25 12:03:58;;;;;;;;;;;;;;;;;;4994649;28;19964;-78
2022/09/25 12:06:24;;;;;;;;;;;;;;;;;;4994912;28;19914;-76
2022/09/25 12:08:49;;;;;;;;;;;;;;;;;;4996101;28;20144;-78
2022/09/25 12:11:14;;;;;;;;;;;;;;;;;;4993529;28;20361;-77
2022/09/25 12:13:40;;;;;;;;;;;;;;;;;;4976966;28;19968;-77
2022/09/25 12:16:06;;;;;;;;;;;;;;;;;;4988275;28;19918;-77
2022/09/25 12:18:32;;;;;;;;;;;;;;;;;;4993693;28;19914;-77
2022/09/25 12:20:57;;;;;;;;;;;;;;;;;;4994462;28;20297;-77
2022/09/25 12:23:24;;;;;;;;;;;;;;;;;;4996369;28;19917;-77
2022/09/25 12:25:49;;;;;;;;;;;;;;;;;;4993287;28;20285;-77
2022/09/25 12:28:15;;;;;;;;;;;;;;;;;;4993384;28;19959;-77
2022/09/25 12:30:40;;;;;;;;;;;;;;;;;;4993326;28;19921;-75
2022/09/25 12:33:06;;;;;;;;;;;;;;;;;;4994876;28;20000;-75
2022/09/25 12:35:31;;;;;;;;;;;;;;;;;;4992874;28;19914;-77
2022/09/25 12:37:57;;;;;;;;;;;;;;;;;;4994182;28;19918;-78
2022/09/25 12:40:22;;;;;;;;;;;;;;;;;;4992968;28;19921;-78
2022/09/25 12:42:47;;;;;;;;;;;;;;;;;;4993493;28;19993;-76
2022/09/25 12:45:13;;;;;;;;;;;;;;;;;;4994045;28;19918;-78
2022/09/25 12:47:40;;;;;;;;;;;;;;;;;;4993075;28;20369;-77
2022/09/25 12:50:05;;;;;;;;;;;;;;;;;;4994242;28;19954;-77
2022/09/25 12:52:31;;;;;;;;;;;;;;;;;;4993357;28;19977;-77
2022/09/25 12:54:56;;;;;;;;;;;;;;;;;;4994102;28;20391;-76
2022/09/25 12:57:21;;;;;;;;;;;;;;;;;;4993847;28;19997;-75
2022/09/25 12:59:47;;;;;;;;;;;;;;;;;;4993244;28;19914;-78
2022/09/25 13:02:12;;;;;;;;;;;;;;;;;;4992936;28;20403;-78
2022/09/25 13:04:38;;;;;;;;;;;;;;;;;;4992896;28;20305;-79
2022/09/25 13:07:04;;;;;;;;;;;;;;;;;;4993046;28;19983;-78
2022/09/25 13:09:30;;;;;;;;;;;;;;;;;;4993598;28;19914;-76
2022/09/25 13:11:56;;;;;;;;;;;;;;;;;;4992574;28;19933;-76
2022/09/25 13:14:21;;;;;;;;;;;;;;;;;;4991360;28;19921;-77
2022/09/25 13:16:47;;;;;;;;;;;;;;;;;;4993537;28;20407;-76
2022/09/25 13:19:12;;;;;;;;;;;;;;;;;;4992340;28;19918;-77
2022/09/25 13:21:38;;;;;;;;;;;;;;;;;;4977639;28;19920;-78
2022/09/25 13:24:07;;;;;;;;;;;;;;;;;;4995888;28;20340;-79
2022/09/25 13:26:32;;;;;;;;;;;;;;;;;;4993858;28;20404;-77
2022/09/25 13:28:57;;;;;;;;;;;;;;;;;;4992563;28;19914;-78
2022/09/25 13:31:23;;;;;;;;;;;;;;;;;;4992316;28;19921;-78
2022/09/25 13:33:48;;;;;;;;;;;;;;;;;;4975798;28;20401;-77
2022/09/25 13:36:15;;;;;;;;;;;;;;;;;;4993440;28;19913;-77
2022/09/25 13:41:24;;;;;;;;;;;;;;;;;;4993219;28;19913;-77
2022/09/25 13:46:26;;;;;;;;;;;;;;;;;;4947883;28;19945;-77
2022/09/25 13:48:54;;;;;;;;;;;;;;;;;;4933138;29;20038;-78
2022/09/25 13:51:19;;;;;;;;;;;;;;;;;;4949885;29;19914;-78
2022/09/25 13:53:45;;;;;;;;;;;;;;;;;;4960463;28;19915;-76
2022/09/25 13:56:10;;;;;;;;;;;;;;;;;;4934905;29;19989;-78
2022/09/25 13:58:36;;;;;;;;;;;;;;;;;;4934178;29;20405;-79
2022/09/25 14:01:01;;;;;;;;;;;;;;;;;;4934276;29;19923;-77
2022/09/25 14:03:29;;;;;;;;;;;;;;;;;;4934779;29;19926;-78
2022/09/25 14:05:54;;;;;;;;;;;;;;;;;;4949830;28;19914;-78
2022/09/25 14:08:20;;;;;;;;;;;;;;;;;;4918261;29;19922;-78
2022/09/25 14:10:45;;;;;;;;;;;;;;;;;;4934868;29;19962;-77
2022/09/25 14:13:11;;;;;;;;;;;;;;;;;;4933499;29;19922;-77
2022/09/25 14:15:39;;;;;;;;;;;;;;;;;;4933897;29;19918;-77
2022/09/25 14:18:04;;;;;;;;;;;;;;;;;;4934863;29;20005;-78
2022/09/25 14:20:30;;;;;;;;;;;;;;;;;;4933473;29;20034;-77
2022/09/25 14:22:55;;;;;;;;;;;;;;;;;;4933869;29;19921;-77
2022/09/25 14:25:22;;;;;;;;;;;;;;;;;;4935232;29;20445;-77
2022/09/25 14:27:48;;;;;;;;;;;;;;;;;;4934172;29;20407;-78
2022/09/25 14:30:13;;;;;;;;;;;;;;;;;;4949598;29;19965;-78
2022/09/25 14:32:38;;;;;;;;;;;;;;;;;;4935004;29;19914;-77
2022/09/25 14:35:04;;;;;;;;;;;;;;;;;;4935074;29;19942;-77
2022/09/25 14:37:29;;;;;;;;;;;;;;;;;;4935007;29;20014;-78
2022/09/25 14:39:55;;;;;;;;;;;;;;;;;;4933763;29;19915;-79
2022/09/25 14:42:22;;;;;;;;;;;;;;;;;;4933228;29;20287;-78
2022/09/25 14:44:48;;;;;;;;;;;;;;;;;;4917256;29;19919;-78
2022/09/25 14:47:13;;;;;;;;;;;;;;;;;;4933396;29;19962;-78
2022/09/25 14:49:39;;;;;;;;;;;;;;;;;;4933362;29;20223;-79
2022/09/25 14:52:04;;;;;;;;;;;;;;;;;;4934479;29;20409;-78
2022/09/25 14:54:30;;;;;;;;;;;;;;;;;;4932482;29;19918;-76
2022/09/25 14:56:55;;;;;;;;;;;;;;;;;;4934415;29;19915;-77
2022/09/25 14:59:20;;;;;;;;;;;;;;;;;;4934781;29;19919;-78
2022/09/25 15:01:46;;;;;;;;;;;;;;;;;;4934702;29;20442;-77
2022/09/25 15:04:11;;;;;;;;;;;;;;;;;;4934056;29;20354;-78
2022/09/25 15:06:38;;;;;;;;;;;;;;;;;;4934310;29;19922;-78
2022/09/25 15:09:03;;;;;;;;;;;;;;;;;;4934113;29;19915;-76
2022/09/25 15:11:28;;;;;;;;;;;;;;;;;;4934320;29;20054;-77
2022/09/25 15:13:54;;;;;;;;;;;;;;;;;;4933280;29;19914;-78
2022/09/25 15:19:03;;;;;;;;;;;;;;;;;;4933156;29;19922;-77
2022/09/25 15:21:29;;;;;;;;;;;;;;;;;;4934271;29;20268;-76
2022/09/25 15:23:54;;;;;;;;;;;;;;;;;;4932452;29;20466;-76
2022/09/25 15:26:20;;;;;;;;;;;;;;;;;;4933880;29;19925;-76
2022/09/25 15:28:45;;;;;;;;;;;;;;;;;;4949035;29;20367;-77
2022/09/25 15:31:11;;;;;;;;;;;;;;;;;;4934119;29;19915;-76
2022/09/25 15:33:36;;;;;;;;;;;;;;;;;;4949518;28;19915;-76
2022/09/25 15:36:02;;;;;;;;;;;;;;;;;;4932881;29;20007;-76
2022/09/25 15:38:27;;;;;;;;;;;;;;;;;;4932591;29;19915;-77
2022/09/25 15:40:53;;;;;;;;;;;;;;;;;;4937339;29;20445;-78
2022/09/25 15:43:18;;;;;;;;;;;;;;;;;;4937507;29;19934;-78
2022/09/25 15:45:44;;;;;;;;;;;;;;;;;;4937499;29;19973;-78
2022/09/25 15:48:09;;;;;;;;;;;;;;;;;;4924540;29;20409;-77
2022/09/25 15:50:34;;;;;;;;;;;;;;;;;;4936133;29;20303;-77
2022/09/25 15:53:00;;;;;;;;;;;;;;;;;;4937037;29;19922;-77
2022/09/25 15:55:25;;;;;;;;;;;;;;;;;;4935444;29;19922;-78
2022/09/25 15:57:51;;;;;;;;;;;;;;;;;;4935804;29;19915;-77
2022/09/25 16:05:44;;;;;;;;;;;;;;;;;;4936812;29;19957;-76
2022/09/25 16:08:10;;;;;;;;;;;;;;;;;;4937182;29;19954;-76
2022/09/25 16:10:35;;;;;;;;;;;;;;;;;;4951725;29;20302;-78
2022/09/25 16:13:00;;;;;;;;;;;;;;;;;;4936771;29;19914;-77
2022/09/25 16:15:26;;;;;;;;;;;;;;;;;;4936940;29;19922;-77
2022/09/25 16:17:53;;;;;;;;;;;;;;;;;;4936725;29;20390;-78
2022/09/25 16:20:19;;;;;;;;;;;;;;;;;;4935501;29;19910;-78
2022/09/25 16:22:44;;;;;;;;;;;;;;;;;;4935258;29;19924;-77
2022/09/25 16:25:09;;;;;;;;;;;;;;;;;;4936891;29;19923;-77
2022/09/25 16:27:35;;;;;;;;;;;;;;;;;;4936808;29;19915;-76
2022/09/25 16:30:00;;;;;;;;;;;;;;;;;;4951742;28;19967;-75
2022/09/25 16:32:26;;;;;;;;;;;;;;;;;;4935614;29;20317;-75
2022/09/25 16:34:52;;;;;;;;;;;;;;;;;;4935272;29;19930;-77
2022/09/25 16:37:17;;;;;;;;;;;;;;;;;;4935044;29;19970;-78
2022/09/25 16:39:42;;;;;;;;;;;;;;;;;;4936585;29;19915;-77
2022/09/25 16:42:08;;;;;;;;;;;;;;;;;;4935229;29;20391;-77
2022/09/25 16:44:33;;;;;;;;;;;;;;;;;;4936051;29;19919;-76
2022/09/25 16:46:59;;;;;;;;;;;;;;;;;;4936423;29;20382;-76
2022/09/25 16:49:24;;;;;;;;;;;;;;;;;;4936504;29;19915;-79
2022/09/25 16:51:49;;;;;;;;;;;;;;;;;;4934165;29;20001;-76
2022/09/25 16:54:15;;;;;;;;;;;;;;;;;;4936080;29;19962;-75
2022/09/25 16:56:41;;;;;;;;;;;;;;;;;;4950222;29;19998;-77
2022/09/25 16:59:07;;;;;;;;;;;;;;;;;;4936129;29;19946;-78
2022/09/25 17:01:33;;;;;;;;;;;;;;;;;;4936627;29;19970;-78
2022/09/25 17:03:58;;;;;;;;;;;;;;;;;;4935784;29;20073;-78